Time;durP1;ratioP1;P1;durP2;ratioP2;P2;SDS_P1;SDS_P2;PMS_P1;PMS_P2;Temp;Humidity;BMP_temperature;BMP_pressure;BME280_temperature;BME280_humidity;BME280_pressure;Samples;Min_cycle;Max_cycle;Signal;HPM_P1;HPM_P2
2023/03/27 00:02:14;;;;;;;1.80;0.40;;;5.60;91.80;;;;;;4993654;28;20172;-77
2023/03/27 00:04:40;;;;;;;3.87;0.27;;;5.60;99.90;;;;;;4991563;28;20183;-78
2023/03/27 00:07:05;;;;;;;3.23;0.63;;;5.60;99.90;;;;;;4992941;28;20647;-78
2023/03/27 00:09:31;;;;;;;2.20;0.43;;;5.50;99.90;;;;;;5009479;28;20227;-77
2023/03/27 00:11:57;;;;;;;4.00;0.50;;;5.50;99.90;;;;;;4997013;28;20211;-78
2023/03/27 00:14:32;;;;;;;1.53;0.43;;;5.40;99.90;;;;;;4996941;28;21025;-78
2023/03/27 00:16:58;;;;;;;3.03;0.57;;;5.40;99.90;;;;;;4995683;28;20418;-77
2023/03/27 00:19:25;;;;;;;2.63;1.03;;;5.30;99.90;;;;;;4996404;28;20426;-78
2023/03/27 00:21:50;;;;;;;1.13;0.50;;;5.30;99.90;;;;;;4996769;28;20425;-77
2023/03/27 00:24:16;;;;;;;2.27;0.50;;;5.30;99.90;;;;;;4996800;28;20501;-78
2023/03/27 00:26:41;;;;;;;1.30;0.70;;;5.20;99.90;;;;;;4996827;28;20176;-78
2023/03/27 00:29:07;;;;;;;0.77;0.33;;;5.20;99.90;;;;;;4996687;28;20226;-77
2023/03/27 00:31:32;;;;;;;2.93;0.47;;;5.10;99.90;;;;;;4996740;28;20219;-78
2023/03/27 00:33:58;;;;;;;3.50;1.00;;;5.10;99.90;;;;;;4994935;28;20207;-77
2023/03/27 00:36:24;;;;;;;5.00;1.57;;;5.00;99.90;;;;;;4996533;28;20590;-78
2023/03/27 00:38:51;;;;;;;2.30;0.37;;;4.90;99.90;;;;;;5011660;28;20233;-77
2023/03/27 00:41:20;;;;;;;3.70;0.77;;;4.90;99.90;;;;;;4996542;28;20232;-77
2023/03/27 00:43:48;;;;;;;2.33;0.50;;;4.90;99.90;;;;;;4996421;28;20428;-77
2023/03/27 00:46:30;;;;;;;2.00;0.60;;;5.00;99.90;;;;;;4996343;28;20422;-78
2023/03/27 00:48:57;;;;;;;2.07;0.60;;;5.00;99.90;;;;;;4996157;28;20426;-78
2023/03/27 00:51:25;;;;;;;0.93;0.40;;;5.00;99.90;;;;;;4995073;28;20418;-77
2023/03/27 00:53:52;;;;;;;0.70;0.40;;;5.00;99.90;;;;;;4996139;28;20466;-78
2023/03/27 00:56:18;;;;;;;1.60;0.37;;;5.00;99.90;;;;;;4996245;28;20777;-78
2023/03/27 00:58:58;;;;;;;3.77;0.53;;;5.00;99.90;;;;;;4993624;28;20423;-78
2023/03/27 01:01:26;;;;;;;1.10;0.50;;;5.00;99.90;;;;;;4994804;28;20453;-78
2023/03/27 01:03:53;;;;;;;4.30;0.80;;;5.10;99.90;;;;;;4994393;28;20450;-77
2023/03/27 01:06:20;;;;;;;2.47;0.60;;;5.10;99.90;;;;;;4994733;28;20842;-78
2023/03/27 01:08:46;;;;;;;2.10;0.80;;;5.10;99.90;;;;;;4994579;28;20490;-77
2023/03/27 01:11:40;;;;;;;2.00;0.50;;;5.10;1.00;;;;;;4994619;28;20430;-77
2023/03/27 01:14:16;;;;;;;1.00;0.53;;;5.10;1.00;;;;;;4992679;28;20471;-77
2023/03/27 01:17:19;;;;;;;2.63;0.87;;;5.20;1.00;;;;;;4994752;28;20751;-77
2023/03/27 01:20:13;;;;;;;2.00;0.40;;;5.20;1.00;;;;;;4994082;28;20414;-77
2023/03/27 01:23:02;;;;;;;2.00;0.40;;;5.20;1.00;;;;;;4992964;28;20427;-78
2023/03/27 01:26:06;;;;;;;5.37;0.40;;;5.20;1.00;;;;;;4994143;28;20911;-78
2023/03/27 01:28:53;;;;;;;0.60;0.20;;;5.20;1.00;;;;;;4994297;28;20859;-78
2023/03/27 01:31:47;;;;;;;1.87;0.20;;;5.10;1.00;;;;;;4994284;28;20406;-77
2023/03/27 01:34:56;;;;;;;1.27;0.60;;;5.00;1.00;;;;;;4993852;28;20541;-77
2023/03/27 01:37:59;;;;;;;0.90;0.30;;;5.00;1.00;;;;;;5009152;28;20419;-77
2023/03/27 01:40:31;;;;;;;4.30;0.40;;;5.00;1.00;;;;;;4993969;28;20429;-77
2023/03/27 01:43:05;;;;;;;1.83;0.40;;;4.90;1.00;;;;;;4994062;28;20444;-77
2023/03/27 01:45:41;;;;;;;2.87;0.50;;;4.80;1.00;;;;;;5009033;28;20465;-78
2023/03/27 01:48:21;;;;;;;8.33;0.50;;;4.80;1.00;;;;;;4993871;28;20411;-78
2023/03/27 01:50:52;;;;;;;2.10;0.60;;;4.80;1.00;;;;;;4993742;28;20414;-78
2023/03/27 01:53:35;;;;;;;3.50;0.50;;;4.70;1.00;;;;;;4993782;28;20421;-78
2023/03/27 01:56:25;;;;;;;1.13;0.40;;;4.60;1.00;;;;;;4993758;28;20442;-78
2023/03/27 01:58:54;;;;;;;1.13;0.50;;;4.60;1.00;;;;;;4990344;28;20459;-78
2023/03/27 02:01:29;;;;;;;2.93;0.30;;;4.50;1.00;;;;;;4993711;28;20428;-77
2023/03/27 02:03:58;;;;;;;2.00;0.50;;;4.50;1.00;;;;;;4993251;28;20786;-78
2023/03/27 02:06:33;;;;;;;0.70;0.30;;;4.50;1.00;;;;;;4993585;28;20418;-78
2023/03/27 02:09:04;;;;;;;1.23;0.30;;;4.40;1.00;;;;;;4992035;28;20470;-78
2023/03/27 02:11:36;;;;;;;1.53;0.50;;;4.30;1.00;;;;;;4993396;28;20449;-78
2023/03/27 02:14:08;;;;;;;7.37;0.60;;;4.20;1.00;;;;;;4992198;28;20814;-78
2023/03/27 02:16:41;;;;;;;1.23;0.23;;;4.30;6.60;;;;;;4992259;28;20478;-78
2023/03/27 02:19:13;;;;;;;3.23;1.10;;;4.30;26.70;;;;;;4992951;28;20434;-77
2023/03/27 02:21:38;;;;;;;3.70;0.50;;;4.20;99.90;;;;;;4993279;28;20450;-77
2023/03/27 02:24:07;;;;;;;8.87;0.40;;;4.20;99.90;;;;;;4993029;28;20456;-77
2023/03/27 02:26:33;;;;;;;3.00;0.90;;;4.20;99.90;;;;;;4993236;28;20168;-77
2023/03/27 02:29:07;;;;;;;1.50;0.40;;;4.20;99.90;;;;;;4993124;28;20418;-78
2023/03/27 02:31:43;;;;;;;1.87;0.30;;;4.30;1.00;;;;;;5007890;28;20185;-77
2023/03/27 02:34:27;;;;;;;1.13;0.47;;;4.20;1.00;;;;;;4992668;28;20527;-77
2023/03/27 02:37:16;;;;;;;5.57;1.70;;;4.30;1.00;;;;;;5008285;28;20429;-77
2023/03/27 02:40:31;;;;;;;8.03;0.73;;;4.20;1.00;;;;;;5004360;28;20482;-78
2023/03/27 02:43:17;;;;;;;4.30;1.13;;;4.30;1.00;;;;;;4989596;28;20481;-77
2023/03/27 02:46:04;;;;;;;1.47;0.40;;;4.30;1.00;;;;;;5008106;28;20429;-77
2023/03/27 02:48:37;;;;;;;2.20;0.40;;;4.30;99.90;;;;;;4992494;28;20550;-77
2023/03/27 02:51:24;;;;;;;2.30;0.57;;;4.40;99.90;;;;;;5007907;28;20433;-77
2023/03/27 02:53:58;;;;;;;3.70;0.50;;;4.40;99.90;;;;;;4991368;28;20481;-77
2023/03/27 02:56:26;;;;;;;3.03;0.83;;;4.40;99.90;;;;;;5007975;28;20516;-77
2023/03/27 02:58:58;;;;;;;2.93;0.60;;;4.50;99.90;;;;;;5007680;28;20468;-77
2023/03/27 03:01:31;;;;;;;2.57;0.73;;;4.50;1.00;;;;;;4991920;28;20474;-77
2023/03/27 03:04:00;;;;;;;1.90;0.43;;;4.40;1.00;;;;;;4993607;28;20417;-77
2023/03/27 03:06:28;;;;;;;4.57;0.73;;;4.50;1.00;;;;;;4993892;28;20424;-77
2023/03/27 03:09:01;;;;;;;2.60;0.60;;;4.50;99.90;;;;;;4987342;28;20470;-78
2023/03/27 03:11:28;;;;;;;4.30;0.60;;;4.60;99.90;;;;;;4988582;28;20425;-77
2023/03/27 03:13:54;;;;;;;6.53;1.00;;;4.60;99.90;;;;;;4993549;28;20919;-77
2023/03/27 03:16:20;;;;;;;5.13;1.10;;;4.50;99.90;;;;;;5008820;28;20781;-77
2023/03/27 03:18:46;;;;;;;4.87;0.40;;;4.50;99.90;;;;;;5008265;28;20517;-77
2023/03/27 03:21:11;;;;;;;1.40;0.20;;;4.50;99.90;;;;;;4992551;28;20837;-77
2023/03/27 03:23:37;;;;;;;2.67;0.30;;;4.50;99.90;;;;;;4993373;28;20176;-77
2023/03/27 03:26:03;;;;;;;1.23;0.50;;;4.50;99.90;;;;;;4992276;28;20274;-77
2023/03/27 03:28:29;;;;;;;3.90;0.90;;;4.50;99.90;;;;;;4993370;28;20502;-77
2023/03/27 03:30:57;;;;;;;4.20;1.03;;;4.40;11.90;;;;;;4993219;28;20415;-77
2023/03/27 03:33:24;;;;;;;1.10;0.53;;;4.50;99.90;;;;;;4992602;28;20186;-77
2023/03/27 03:35:50;;;;;;;2.17;1.10;;;4.50;1.00;;;;;;4992997;28;20924;-77
2023/03/27 03:38:25;;;;;;;6.93;0.87;;;4.50;1.00;;;;;;4993079;28;20427;-76
2023/03/27 03:40:55;;;;;;;0.80;0.40;;;4.50;9.40;;;;;;4993223;28;20190;-77
2023/03/27 03:43:21;;;;;;;4.40;0.67;;;4.50;28.00;;;;;;4993172;28;20412;-77
2023/03/27 03:45:47;;;;;;;1.60;0.40;;;4.40;1.00;;;;;;4996659;28;20947;-77
2023/03/27 03:48:13;;;;;;;13.50;1.50;;;4.50;96.30;;;;;;4996782;28;20926;-77
2023/03/27 03:50:38;;;;;;;2.10;0.70;;;4.40;99.90;;;;;;4996057;28;20428;-77
2023/03/27 03:53:04;;;;;;;4.30;1.40;;;4.30;99.90;;;;;;4996683;28;20206;-77
2023/03/27 03:55:29;;;;;;;2.93;0.87;;;4.30;99.90;;;;;;5011475;28;20221;-77
2023/03/27 03:57:55;;;;;;;9.03;1.30;;;4.30;1.00;;;;;;4997221;28;20171;-77
2023/03/27 04:00:21;;;;;;;1.73;0.40;;;4.30;1.00;;;;;;4997117;28;20525;-77
2023/03/27 04:02:49;;;;;;;2.90;1.20;;;4.40;1.00;;;;;;4996796;28;20160;-77
2023/03/27 04:05:15;;;;;;;2.83;0.90;;;4.40;1.00;;;;;;4996693;28;20432;-79
2023/03/27 04:07:41;;;;;;;5.13;0.93;;;4.40;1.00;;;;;;4996828;28;20442;-77
2023/03/27 04:10:07;;;;;;;3.17;1.20;;;4.40;1.00;;;;;;4996925;28;20194;-77
2023/03/27 04:12:33;;;;;;;3.23;0.93;;;4.30;99.90;;;;;;4996754;28;20185;-77
2023/03/27 04:14:58;;;;;;;7.30;1.57;;;4.20;99.90;;;;;;4996575;28;20481;-77
2023/03/27 04:17:25;;;;;;;2.30;0.90;;;4.20;99.90;;;;;;4996770;28;20171;-77
2023/03/27 04:19:53;;;;;;;2.53;0.73;;;4.10;1.00;;;;;;4996486;28;20637;-77
2023/03/27 04:22:22;;;;;;;4.03;1.53;;;4.00;1.00;;;;;;4996807;28;20407;-77
2023/03/27 04:24:49;;;;;;;0.83;0.50;;;4.00;99.90;;;;;;4996676;28;20435;-77
2023/03/27 04:27:16;;;;;;;4.70;0.50;;;3.90;1.00;;;;;;5011615;28;20427;-77
2023/03/27 04:29:42;;;;;;;4.57;0.90;;;3.80;99.90;;;;;;4996578;28;20988;-77
2023/03/27 04:32:11;;;;;;;3.87;1.20;;;3.70;28.80;;;;;;4996551;28;20429;-77
2023/03/27 04:34:37;;;;;;;3.47;1.23;;;3.60;1.00;;;;;;4996173;28;20528;-77
2023/03/27 04:37:03;;;;;;;4.10;0.93;;;3.60;1.00;;;;;;4995099;28;20816;-77
2023/03/27 04:39:38;;;;;;;4.10;1.30;;;3.50;99.90;;;;;;4996441;28;20166;-77
2023/03/27 04:42:04;;;;;;;2.37;1.00;;;3.50;99.90;;;;;;5011449;28;20473;-77
2023/03/27 04:44:29;;;;;;;4.90;1.10;;;3.60;99.90;;;;;;4994542;28;20464;-77
2023/03/27 04:46:56;;;;;;;3.40;1.20;;;3.50;99.90;;;;;;4995025;28;20466;-77
2023/03/27 04:49:22;;;;;;;2.23;1.20;;;3.50;99.90;;;;;;4996025;28;20550;-76
2023/03/27 04:51:48;;;;;;;4.23;1.10;;;3.50;99.90;;;;;;4996305;28;20422;-76
2023/03/27 04:54:13;;;;;;;1.83;1.30;;;3.40;99.90;;;;;;5011285;28;20204;-77
2023/03/27 04:56:40;;;;;;;3.40;0.60;;;3.40;1.00;;;;;;4995641;28;20184;-76
2023/03/27 04:59:06;;;;;;;3.10;0.77;;;3.30;1.00;;;;;;4996209;28;20179;-77
2023/03/27 05:01:32;;;;;;;3.90;1.90;;;3.20;1.00;;;;;;4996108;28;20419;-76
2023/03/27 05:04:01;;;;;;;1.70;0.90;;;3.20;1.00;;;;;;5010811;28;20178;-77
2023/03/27 05:06:27;;;;;;;5.87;1.47;;;3.10;1.00;;;;;;4996065;28;20502;-76
2023/03/27 05:08:53;;;;;;;3.40;0.63;;;3.10;1.00;;;;;;4995840;28;20819;-77
2023/03/27 05:11:18;;;;;;;3.97;0.63;;;3.10;1.00;;;;;;4995997;28;20416;-77
2023/03/27 05:13:44;;;;;;;1.90;1.17;;;3.10;1.00;;;;;;4995894;28;20295;-77
2023/03/27 05:16:10;;;;;;;5.23;1.23;;;3.10;1.00;;;;;;4995864;28;20184;-77
2023/03/27 05:18:37;;;;;;;2.70;0.80;;;3.10;1.00;;;;;;4995483;28;20162;-76
2023/03/27 05:21:03;;;;;;;5.83;0.67;;;3.10;1.00;;;;;;4995771;28;20186;-77
2023/03/27 05:23:28;;;;;;;1.47;0.70;;;3.10;1.00;;;;;;4995733;28;20423;-76
2023/03/27 05:25:55;;;;;;;2.30;0.63;;;3.20;1.00;;;;;;4995649;28;20765;-77
2023/03/27 05:28:21;;;;;;;2.50;0.77;;;3.20;1.00;;;;;;4995627;28;20264;-76
2023/03/27 05:30:47;;;;;;;5.90;1.35;;;3.20;1.00;;;;;;4994858;28;20416;-77
2023/03/27 05:33:13;;;;;;;5.80;1.07;;;3.30;1.00;;;;;;4995104;28;20627;-76
2023/03/27 05:35:40;;;;;;;8.00;1.57;;;3.40;1.00;;;;;;4995524;28;20515;-77
2023/03/27 05:38:07;;;;;;;3.57;1.20;;;3.40;1.00;;;;;;4995434;28;20593;-77
2023/03/27 05:40:33;;;;;;;4.53;1.90;;;3.40;1.00;;;;;;4995430;28;20477;-77
2023/03/27 05:43:00;;;;;;;7.23;0.87;;;3.30;1.00;;;;;;4995287;28;20411;-77
2023/03/27 05:45:25;;;;;;;2.30;0.77;;;3.30;7.50;;;;;;4995303;28;20506;-77
2023/03/27 05:47:56;;;;;;;2.73;0.73;;;3.30;11.00;;;;;;4993635;28;20563;-77
2023/03/27 05:50:25;;;;;;;3.20;1.30;;;3.30;16.30;;;;;;4995091;28;20181;-77
2023/03/27 05:52:55;;;;;;;5.30;0.63;;;3.40;22.40;;;;;;4994837;28;20423;-76
2023/03/27 05:55:21;;;;;;;2.27;0.67;;;3.40;31.10;;;;;;4994980;28;20807;-77
2023/03/27 05:57:46;;;;;;;1.57;0.93;;;3.50;35.50;;;;;;5010176;28;20422;-77
2023/03/27 06:00:12;;;;;;;4.63;1.33;;;3.50;37.90;;;;;;4995090;28;20176;-77
2023/03/27 06:02:41;;;;;;;2.93;0.83;;;3.50;49.60;;;;;;4994685;28;20173;-76
2023/03/27 06:05:14;;;;;;;2.00;0.80;;;3.50;61.40;;;;;;4994917;28;20415;-77
2023/03/27 06:07:41;;;;;;;4.67;1.20;;;3.50;93.80;;;;;;4993980;28;20574;-77
2023/03/27 06:10:07;;;;;;;2.50;0.80;;;3.50;94.50;;;;;;5009929;28;20437;-77
2023/03/27 06:12:35;;;;;;;4.20;0.97;;;3.60;98.90;;;;;;4994557;28;20462;-77
2023/03/27 06:15:08;;;;;;;1.03;0.67;;;3.60;94.00;;;;;;4994610;28;20967;-77
2023/03/27 06:17:37;;;;;;;1.90;1.10;;;3.70;88.30;;;;;;4994420;28;20407;-77
2023/03/27 06:20:10;;;;;;;2.40;1.20;;;3.80;76.70;;;;;;4994447;28;20453;-77
2023/03/27 06:22:38;;;;;;;5.10;1.67;;;3.80;57.70;;;;;;4994607;28;20502;-77
2023/03/27 06:25:04;;;;;;;1.13;0.70;;;3.80;68.60;;;;;;4994566;28;20432;-77
2023/03/27 06:27:30;;;;;;;3.23;0.67;;;3.90;60.00;;;;;;4994512;28;20502;-77
2023/03/27 06:29:56;;;;;;;3.47;0.90;;;4.10;43.50;;;;;;4994385;28;20417;-77
2023/03/27 06:32:22;;;;;;;3.07;1.40;;;4.20;6.10;;;;;;4992742;28;20916;-77
2023/03/27 06:34:48;;;;;;;5.17;1.47;;;4.40;13.60;;;;;;5009409;28;20207;-77
2023/03/27 06:37:14;;;;;;;4.00;0.70;;;4.70;1.00;;;;;;4994308;28;20164;-77
2023/03/27 06:39:40;;;;;;;5.03;1.10;;;5.20;1.00;;;;;;4994326;28;20426;-77
2023/03/27 06:42:05;;;;;;;5.70;1.23;;;5.60;1.00;;;;;;4994245;28;20168;-77
2023/03/27 06:44:31;;;;;;;3.63;0.90;;;6.10;1.00;;;;;;4994204;28;20174;-77
2023/03/27 06:46:57;;;;;;;4.43;0.60;;;6.80;99.90;;;;;;4994250;28;20224;-77
2023/03/27 06:49:22;;;;;;;3.70;0.53;;;7.60;99.90;;;;;;4993761;28;20432;-78
2023/03/27 06:51:48;;;;;;;1.53;0.47;;;8.30;99.90;;;;;;4994145;28;20172;-78
2023/03/27 06:54:13;;;;;;;6.83;0.90;;;9.00;1.00;;;;;;5009108;28;20212;-77
2023/03/27 06:56:39;;;;;;;4.53;0.63;;;9.60;1.00;;;;;;4993908;28;20713;-77
2023/03/27 06:59:05;;;;;;;3.93;0.70;;;10.00;1.00;;;;;;4993817;28;20177;-78
2023/03/27 07:01:31;;;;;;;1.87;0.50;;;10.60;99.90;;;;;;4993955;28;20259;-78
2023/03/27 07:03:57;;;;;;;5.20;0.60;;;11.10;99.90;;;;;;4993569;28;20974;-80
2023/03/27 07:06:24;;;;;;;4.30;0.50;;;11.60;99.90;;;;;;4993883;28;20178;-77
2023/03/27 07:08:49;;;;;;;3.90;0.40;;;11.90;99.90;;;;;;4993694;28;20242;-77
2023/03/27 07:11:15;;;;;;;1.70;0.60;;;12.10;94.20;;;;;;5008828;28;20410;-77
2023/03/27 07:13:41;;;;;;;2.83;0.30;;;12.10;55.00;;;;;;5008751;28;20216;-77
2023/03/27 07:16:07;;;;;;;3.93;0.60;;;11.80;36.40;;;;;;4993829;28;20174;-79
2023/03/27 07:18:33;;;;;;;5.93;0.47;;;10.40;45.10;;;;;;4993229;28;20416;-77
2023/03/27 07:20:58;;;;;;;1.30;0.40;;;9.20;71.10;;;;;;4993654;28;20423;-76
2023/03/27 07:23:24;;;;;;;2.50;0.40;;;8.30;99.90;;;;;;4993716;28;20182;-79
2023/03/27 07:25:50;;;;;;;1.13;0.20;;;7.60;99.90;;;;;;4993672;28;20206;-78
2023/03/27 07:28:17;;;;;;;0.90;0.30;;;7.10;1.00;;;;;;4993560;28;20526;-79
2023/03/27 07:30:46;;;;;;;2.17;0.90;;;6.80;99.90;;;;;;4993629;28;20425;-79
2023/03/27 07:33:11;;;;;;;2.50;0.93;;;6.50;99.90;;;;;;4993103;28;20501;-79
2023/03/27 07:35:45;;;;;;;2.60;0.57;;;7.00;1.00;;;;;;4993506;28;20562;-76
2023/03/27 07:38:11;;;;;;;1.63;0.20;;;7.80;1.00;;;;;;4993520;28;20169;-79
2023/03/27 07:40:37;;;;;;;0.93;0.20;;;9.00;1.00;;;;;;4993559;28;20437;-79
2023/03/27 07:43:05;;;;;;;4.30;0.47;;;10.10;99.90;;;;;;4993542;28;20450;-80
2023/03/27 07:45:31;;;;;;;0.87;0.20;;;10.80;1.00;;;;;;4993513;28;20790;-80
2023/03/27 07:48:07;;;;;;;1.93;0.97;;;11.30;99.90;;;;;;4993115;28;20411;-77
2023/03/27 07:50:33;;;;;;;1.37;0.20;;;11.90;99.90;;;;;;4993520;28;20422;-77
2023/03/27 07:53:03;;;;;;;0.77;0.20;;;12.80;99.90;;;;;;4993429;28;20410;-78
2023/03/27 07:55:29;;;;;;;3.57;0.43;;;13.70;99.90;;;;;;4993432;28;20482;-78
2023/03/27 07:57:54;;;;;;;2.43;0.30;;;14.40;99.90;;;;;;4993371;28;20414;-78
2023/03/27 08:00:23;;;;;;;1.60;0.20;;;15.00;79.70;;;;;;4993319;28;20178;-77
2023/03/27 08:02:49;;;;;;;2.67;0.43;;;15.60;48.60;;;;;;4991736;28;20176;-78
2023/03/27 08:05:16;;;;;;;2.80;0.83;;;15.60;22.30;;;;;;4992053;28;20435;-77
2023/03/27 08:07:44;;;;;;;2.00;0.20;;;16.00;15.80;;;;;;4993031;28;20426;-77
2023/03/27 08:10:10;;;;;;;2.43;0.27;;;15.90;1.00;;;;;;4996108;28;20434;-78
2023/03/27 08:12:39;;;;;;;0.97;0.37;;;16.20;2.00;;;;;;4993339;28;20901;-78
2023/03/27 08:15:06;;;;;;;2.20;0.50;;;16.70;1.00;;;;;;4991840;28;20565;-78
2023/03/27 08:17:32;;;;;;;0.97;0.20;;;17.00;1.00;;;;;;5008076;28;20427;-78
2023/03/27 08:20:00;;;;;;;1.63;0.30;;;16.90;1.00;;;;;;4993194;28;20403;-78
2023/03/27 08:22:27;;;;;;;1.03;0.57;;;16.90;1.00;;;;;;4993089;28;20501;-78
2023/03/27 08:24:52;;;;;;;3.70;0.40;;;15.50;1.00;;;;;;5008012;28;20431;-77
2023/03/27 08:27:18;;;;;;;2.83;0.40;;;14.90;1.00;;;;;;4993065;28;20421;-77
2023/03/27 08:29:44;;;;;;;3.70;0.20;;;15.00;1.00;;;;;;4993273;28;20202;-77
2023/03/27 08:32:09;;;;;;;1.80;0.30;;;14.80;1.00;;;;;;4996302;28;20634;-78
2023/03/27 08:34:55;;;;;;;1.20;0.37;;;13.90;1.00;;;;;;4996536;28;20202;-78
2023/03/27 08:37:21;;;;;;;1.90;0.30;;;14.10;1.00;;;;;;4996426;28;20459;-77
2023/03/27 08:39:46;;;;;;;3.07;0.20;;;14.00;1.00;;;;;;4995308;28;20783;-78
2023/03/27 08:42:26;;;;;;;1.23;0.20;;;13.90;1.00;;;;;;4996509;28;20175;-78
2023/03/27 08:44:53;;;;;;;1.63;0.37;;;12.90;1.00;;;;;;4996499;28;20177;-80
2023/03/27 08:47:31;;;;;;;2.40;0.20;;;12.40;1.00;;;;;;5011146;28;20427;-78
2023/03/27 08:50:01;;;;;;;1.67;0.50;;;12.70;1.00;;;;;;4996337;28;20537;-77
2023/03/27 08:52:30;;;;;;;4.80;0.40;;;13.30;1.00;;;;;;4996297;28;20421;-78
2023/03/27 08:55:21;;;;;;;0.83;0.27;;;13.30;1.00;;;;;;4996187;28;20482;-78
2023/03/27 08:57:49;;;;;;;3.60;0.20;;;13.80;1.00;;;;;;4996246;28;20775;-77
2023/03/27 09:00:26;;;;;;;1.60;0.20;;;13.90;1.00;;;;;;4996030;28;20423;-77
2023/03/27 09:03:03;;;;;;;7.10;1.73;;;14.40;1.00;;;;;;4995793;28;20417;-77
2023/03/27 09:05:39;;;;;;;0.97;0.30;;;14.80;1.00;;;;;;4994765;28;20951;-77
2023/03/27 09:08:39;;;;;;;2.37;0.40;;;15.10;1.00;;;;;;4995836;28;21057;-78
2023/03/27 09:11:35;;;;;;;1.07;0.20;;;15.90;1.00;;;;;;4994817;28;20443;-78
2023/03/27 09:14:23;;;;;;;2.90;0.40;;;17.10;1.00;;;;;;5010989;28;20464;-78
2023/03/27 09:16:50;;;;;;;2.03;0.20;;;17.40;1.00;;;;;;4994580;28;20445;-78
2023/03/27 09:19:35;;;;;;;3.17;1.03;;;16.70;1.00;;;;;;4995552;28;20433;-78
2023/03/27 09:22:10;;;;;;;1.43;0.23;;;15.90;1.00;;;;;;4995886;28;20434;-77
2023/03/27 09:24:42;;;;;;;1.17;0.47;;;15.30;1.00;;;;;;4995652;28;20475;-77
2023/03/27 09:27:17;;;;;;;1.40;0.30;;;15.20;1.00;;;;;;4995709;28;20937;-77
2023/03/27 09:29:43;;;;;;;2.40;0.20;;;14.60;1.00;;;;;;4995605;28;20420;-77
2023/03/27 09:32:14;;;;;;;5.17;0.93;;;14.30;1.00;;;;;;4995184;28;20421;-77
2023/03/27 09:34:40;;;;;;;1.10;0.20;;;14.20;1.00;;;;;;4995572;28;20511;-78
2023/03/27 09:37:12;;;;;;;0.80;0.47;;;14.70;1.00;;;;;;4995546;28;20408;-79
2023/03/27 09:39:42;;;;;;;3.03;0.27;;;14.90;1.00;;;;;;4995521;28;20203;-77
2023/03/27 09:42:22;;;;;;;1.37;0.20;;;14.80;1.00;;;;;;4994259;28;20424;-77
2023/03/27 09:44:55;;;;;;;2.63;0.20;;;14.20;1.00;;;;;;5010533;28;20435;-77
2023/03/27 09:47:37;;;;;;;0.80;0.20;;;13.70;1.00;;;;;;5009908;28;20483;-78
2023/03/27 09:50:20;;;;;;;1.53;0.23;;;14.00;1.00;;;;;;4995355;28;20497;-77
2023/03/27 09:52:45;;;;;;;1.87;0.40;;;14.80;1.00;;;;;;4995233;28;20413;-77
2023/03/27 09:55:23;;;;;;;1.23;0.40;;;15.60;1.00;;;;;;4993813;28;20897;-78
2023/03/27 09:57:57;;;;;;;2.73;0.33;;;16.80;1.00;;;;;;4995127;28;20182;-78
2023/03/27 10:00:32;;;;;;;0.53;0.20;;;16.70;1.00;;;;;;4995012;28;20447;-78
2023/03/27 10:03:12;;;;;;;1.97;0.40;;;16.80;1.00;;;;;;4994656;28;20418;-78
2023/03/27 10:05:38;;;;;;;2.63;0.30;;;16.90;1.00;;;;;;4994906;28;20988;-78
2023/03/27 10:08:50;;;;;;;2.97;0.20;;;17.10;1.00;;;;;;4994794;28;20558;-78
2023/03/27 10:11:22;;;;;;;2.03;0.20;;;17.30;1.00;;;;;;4998690;28;20186;-78
2023/03/27 10:13:51;;;;;;;2.30;0.33;;;18.00;1.00;;;;;;4993485;28;20901;-79
2023/03/27 10:16:18;;;;;;;4.13;0.40;;;18.60;1.00;;;;;;4994667;28;20422;-79
2023/03/27 10:18:47;;;;;;;1.50;0.30;;;18.70;1.00;;;;;;5009222;28;20425;-79
2023/03/27 10:21:25;;;;;;;1.87;0.30;;;18.60;1.00;;;;;;5009694;28;20431;-79
2023/03/27 10:24:00;;;;;;;2.30;0.20;;;18.50;1.00;;;;;;5009468;28;20448;-79
2023/03/27 10:26:29;;;;;;;0.97;0.30;;;18.20;1.00;;;;;;4994414;28;20468;-79
2023/03/27 10:29:00;;;;;;;1.70;0.20;;;18.60;1.00;;;;;;4993013;28;20994;-79
2023/03/27 10:31:31;;;;;;;1.63;0.20;;;18.30;1.00;;;;;;4994364;28;20510;-79
2023/03/27 10:34:00;;;;;;;1.50;0.20;;;18.60;1.00;;;;;;4993783;28;20549;-79
2023/03/27 10:36:33;;;;;;;1.10;0.20;;;19.70;1.00;;;;;;4992991;28;20973;-80
2023/03/27 10:39:11;;;;;;;1.20;0.20;;;20.30;1.00;;;;;;5009284;28;20415;-79
2023/03/27 10:41:38;;;;;;;0.87;0.20;;;19.90;1.00;;;;;;4992821;28;20438;-79
2023/03/27 10:44:16;;;;;;;1.23;0.50;;;19.50;1.00;;;;;;5009066;28;20418;-78
2023/03/27 10:46:45;;;;;;;2.90;0.20;;;18.60;1.00;;;;;;4992433;28;20426;-78
2023/03/27 10:49:41;;;;;;;1.27;0.33;;;17.70;1.00;;;;;;4992310;28;20953;-78
2023/03/27 10:52:24;;;;;;;1.47;0.30;;;16.50;1.00;;;;;;4992498;28;20504;-78
2023/03/27 10:55:11;;;;;;;0.90;0.20;;;15.60;1.00;;;;;;4992351;28;20507;-80
2023/03/27 10:57:38;;;;;;;0.60;0.20;;;13.80;1.00;;;;;;4993819;28;20767;-80
2023/03/27 11:00:18;;;;;;;2.40;0.30;;;12.00;1.00;;;;;;4992587;28;20934;-78
2023/03/27 11:02:51;;;;;;;1.63;0.20;;;11.40;1.00;;;;;;4993456;28;20403;-78
2023/03/27 11:05:27;;;;;;;2.57;0.20;;;10.40;1.00;;;;;;5008852;28;20419;-78
2023/03/27 11:08:07;;;;;;;0.70;0.23;;;9.40;1.00;;;;;;4993575;28;20449;-77
2023/03/27 11:10:40;;;;;;;2.93;0.53;;;8.80;1.00;;;;;;4994591;28;20512;-80
2023/03/27 11:13:28;;;;;;;4.50;0.50;;;8.40;47.20;;;;;;5008909;28;20437;-80
2023/03/27 11:16:24;;;;;;;1.30;0.30;;;8.20;99.90;;;;;;4993577;28;20781;-80
2023/03/27 11:19:17;;;;;;;1.10;0.20;;;8.10;99.90;;;;;;4993408;28;20408;-81
2023/03/27 11:21:47;;;;;;;0.50;0.20;;;8.70;30.70;;;;;;4993705;28;20406;-79
2023/03/27 11:24:40;;;;;;;1.67;0.20;;;10.30;1.00;;;;;;5008606;28;20416;-78
2023/03/27 11:27:35;;;;;;;1.13;0.60;;;12.10;1.00;;;;;;5008431;28;20547;-79
2023/03/27 11:30:07;;;;;;;0.30;0.10;;;14.00;99.90;;;;;;4991980;28;20430;-79
2023/03/27 11:32:44;;;;;;;1.63;0.20;;;15.60;99.90;;;;;;5008255;28;20430;-80
2023/03/27 11:35:21;;;;;;;1.53;0.27;;;16.90;59.80;;;;;;5008391;28;20513;-80
2023/03/27 11:38:05;;;;;;;2.00;0.20;;;17.80;29.30;;;;;;4992316;28;20457;-80
2023/03/27 11:40:36;;;;;;;0.87;0.20;;;18.80;20.00;;;;;;4991952;28;20421;-80
2023/03/27 11:43:02;;;;;;;1.07;0.20;;;19.10;6.30;;;;;;4993426;28;20522;-80
2023/03/27 11:45:40;;;;;;;0.80;0.20;;;19.50;3.30;;;;;;4993200;28;20731;-80
2023/03/27 11:48:15;;;;;;;3.33;0.20;;;19.50;1.00;;;;;;4991675;28;20422;-80
2023/03/27 11:50:58;;;;;;;1.80;0.30;;;19.60;1.00;;;;;;5008365;28;20413;-79
2023/03/27 11:53:53;;;;;;;0.80;0.20;;;19.30;1.00;;;;;;5007461;28;20966;-79
2023/03/27 11:56:35;;;;;;;1.20;0.30;;;18.70;1.00;;;;;;4990795;28;20496;-80
2023/03/27 11:59:14;;;;;;;0.50;0.20;;;18.40;1.00;;;;;;4991907;28;20479;-79
2023/03/27 12:02:09;;;;;;;1.03;0.20;;;17.60;1.00;;;;;;4990090;28;20420;-79
2023/03/27 12:04:43;;;;;;;3.40;0.20;;;16.90;1.00;;;;;;4990599;28;20982;-79
2023/03/27 12:07:24;;;;;;;1.10;0.23;;;15.80;1.00;;;;;;4994266;28;20428;-79
2023/03/27 12:10:23;;;;;;;1.00;0.20;;;14.30;1.00;;;;;;5010553;28;20564;-81
2023/03/27 12:12:54;;;;;;;1.90;0.33;;;12.50;1.00;;;;;;4995622;28;20411;-80
2023/03/27 12:15:31;;;;;;;4.40;0.50;;;11.70;1.00;;;;;;5010396;28;20475;-78
2023/03/27 12:18:21;;;;;;;2.93;0.43;;;11.00;1.00;;;;;;4995083;28;21001;-78
2023/03/27 12:21:16;;;;;;;1.73;0.20;;;10.40;19.20;;;;;;5010487;28;20475;-78
2023/03/27 12:24:03;;;;;;;0.80;0.30;;;9.80;99.90;;;;;;5007789;28;20425;-78
2023/03/27 12:26:46;;;;;;;2.00;0.30;;;9.50;99.90;;;;;;5010368;28;20421;-78
2023/03/27 12:29:17;;;;;;;0.50;0.20;;;10.00;99.90;;;;;;4995461;28;20472;-79
2023/03/27 12:31:52;;;;;;;1.33;0.27;;;10.80;99.90;;;;;;5010040;28;20408;-79
2023/03/27 12:34:59;;;;;;;4.13;0.33;;;12.20;99.90;;;;;;5010185;28;20457;-80
2023/03/27 12:37:44;;;;;;;1.33;0.30;;;14.10;78.40;;;;;;4982650;28;20461;-80
2023/03/27 12:40:36;;;;;;;0.77;0.20;;;15.10;22.90;;;;;;4981820;28;20451;-80
2023/03/27 12:43:38;;;;;;;2.73;0.30;;;16.30;19.60;;;;;;4993823;28;20421;-80
2023/03/27 12:46:31;;;;;;;0.60;0.20;;;17.20;1.00;;;;;;4995226;28;20418;-80
2023/03/27 12:49:22;;;;;;;3.30;0.20;;;17.70;1.00;;;;;;4995014;28;20411;-80
2023/03/27 12:51:55;;;;;;;1.80;0.30;;;18.30;1.00;;;;;;4994771;28;20907;-80
2023/03/27 12:54:35;;;;;;;1.43;0.30;;;18.50;1.00;;;;;;5009787;28;20470;-81
2023/03/27 12:57:20;;;;;;;1.13;0.30;;;18.40;1.00;;;;;;4977302;28;20432;-80
2023/03/27 13:00:07;;;;;;;0.97;0.20;;;17.50;1.00;;;;;;4994947;28;20425;-80
2023/03/27 13:03:18;;;;;;;0.93;0.20;;;17.10;1.00;;;;;;4994510;28;20887;-80
2023/03/27 13:06:00;;;;;;;1.90;0.23;;;15.80;1.00;;;;;;4992184;28;20420;-80
2023/03/27 13:09:12;;;;;;;4.17;0.60;;;15.10;1.00;;;;;;4993066;28;20465;-79
2023/03/27 13:12:08;;;;;;;1.67;0.30;;;14.40;1.00;;;;;;4994469;28;20453;-80
2023/03/27 13:14:51;;;;;;;2.23;0.30;;;13.10;1.00;;;;;;5010543;28;20475;-79
2023/03/27 13:17:48;;;;;;;2.83;0.40;;;12.80;1.00;;;;;;4993723;28;20424;-79
2023/03/27 13:20:49;;;;;;;0.83;0.20;;;12.30;1.00;;;;;;4994306;28;20438;-78
2023/03/27 13:23:43;;;;;;;2.00;0.33;;;11.70;1.00;;;;;;4986932;28;20497;-79
2023/03/27 13:26:29;;;;;;;1.30;0.30;;;11.20;1.00;;;;;;4990418;28;20421;-79
2023/03/27 13:29:20;;;;;;;2.93;0.70;;;10.70;4.90;;;;;;4994286;28;20420;-79
2023/03/27 13:31:47;;;;;;;1.40;0.37;;;10.30;28.70;;;;;;4993796;28;20434;-80